Time;durP1;ratioP1;P1;durP2;ratioP2;P2;SDS_P1;SDS_P2;PMS_P1;PMS_P2;Temp;Humidity;BMP_temperature;BMP_pressure;BME280_temperature;BME280_humidity;BME280_pressure;Samples;Min_cycle;Max_cycle;Signal;HPM_P1;HPM_P2
2021/12/08 10:33:55;;;;;;;33.55;21.10;;;;;;;6.94;97.98;99035.83;1738673;81;21706;-36
2021/12/08 10:37:57;;;;;;;38.63;21.77;;;;;;;6.84;98.10;99044.58;1743035;81;21096;-37
2021/12/08 10:41:55;;;;;;;33.78;20.23;;;;;;;6.76;98.45;99048.92;1736791;81;21028;-42
2021/12/08 10:45:35;;;;;;;32.05;21.17;;;;;;;6.72;98.06;99043.73;1733901;81;21091;-42
2021/12/08 10:48:45;;;;;;;35.52;21.40;;;;;;;6.63;98.31;99044.66;1735242;81;21007;-42
2021/12/08 11:00:08;;;;;;;38.95;23.98;;;;;;;6.52;99.81;99038.20;1739606;81;21417;-42
2021/12/08 11:15:33;;;;;;;42.27;22.82;;;;;;;6.55;100.00;99025.21;1733937;81;21514;-38
2021/12/08 11:18:42;;;;;;;41.35;21.45;;;;;;;6.60;100.00;99021.27;1714312;80;21098;-35
2021/12/08 11:21:24;;;;;;;38.17;21.93;;;;;;;6.66;100.00;99023.40;1724232;81;21709;-35
2021/12/08 11:24:56;;;;;;;38.48;22.82;;;;;;;6.67;100.00;99024.30;1728771;81;20977;-34
2021/12/08 11:39:05;;;;;;;40.95;21.68;;;;;;;6.72;100.00;99024.25;1729269;81;20981;-37
2021/12/08 11:42:21;;;;;;;37.00;21.62;;;;;;;6.75;100.00;99015.15;1725992;81;21070;-46
2021/12/08 11:45:24;;;;;;;46.70;22.73;;;;;;;6.75;100.00;99008.65;1729546;81;21081;-46
2021/12/08 11:47:51;;;;;;;45.95;22.42;;;;;;;6.75;100.00;99010.81;1735072;81;21369;-42
2021/12/08 11:51:07;;;;;;;39.40;22.07;;;;;;;6.75;100.00;99012.11;1675852;83;21016;-35
2021/12/08 11:57:49;;;;;;;41.33;23.70;;;;;;;6.75;100.00;99010.81;1676259;83;21012;-37
2021/12/08 12:00:53;;;;;;;45.08;23.85;;;;;;;6.70;100.00;99013.00;1672378;84;21068;-37
2021/12/08 12:04:08;;;;;;;44.88;23.83;;;;;;;6.66;100.00;99013.00;1701183;82;21535;-38
2021/12/08 12:07:54;;;;;;;45.73;24.70;;;;;;;6.62;100.00;99012.61;1690677;82;21040;-37
2021/12/08 12:11:10;;;;;;;52.90;26.37;;;;;;;6.60;100.00;99019.97;1668563;84;21626;-38
2021/12/08 12:18:24;;;;;;;47.80;23.38;;;;;;;6.59;100.00;99032.53;1686168;83;21036;-37
2021/12/08 12:22:00;;;;;;;46.77;23.52;;;;;;;6.60;100.00;99029.06;1640545;83;21048;-37
2021/12/08 12:28:53;;;;;;;46.48;23.90;;;;;;;6.64;100.00;99023.85;1675478;83;21019;-43
2021/12/08 12:32:24;;;;;;;47.43;23.57;;;;;;;6.60;100.00;99039.02;1693678;82;21124;-45
2021/12/08 12:36:17;;;;;;;46.63;23.75;;;;;;;6.55;100.00;99027.80;1693352;82;21465;-45
2021/12/08 12:39:42;;;;;;;56.90;26.00;;;;;;;6.55;100.00;99036.91;1667441;84;21533;-45
2021/12/08 12:42:57;;;;;;;54.38;25.82;;;;;;;6.52;100.00;99030.41;1670957;84;21000;-45
2021/12/08 12:54:18;;;;;;;53.33;26.70;;;;;;;6.52;100.00;99035.59;1675089;83;21046;-45
2021/12/08 12:57:39;;;;;;;53.05;27.98;;;;;;;6.52;100.00;99042.53;1668291;84;21739;-45
2021/12/08 13:01:29;;;;;;;58.80;29.32;;;;;;;6.52;100.00;99038.20;1659586;84;21168;-44
2021/12/08 13:05:28;;;;;;;52.17;28.10;;;;;;;6.50;100.00;99044.28;1672488;84;21084;-46
2021/12/08 13:08:23;;;;;;;53.75;26.33;;;;;;;6.49;100.00;99047.73;1675993;84;21012;-46
2021/12/08 13:18:23;;;;;;;57.85;27.95;;;;;;;6.49;100.00;99059.42;1664988;85;21590;-45
2021/12/08 13:21:14;;;;;;;56.95;29.55;;;;;;;6.49;100.00;99057.68;1642270;86;21163;-44
2021/12/08 13:24:43;;;;;;;59.20;29.32;;;;;;;6.50;100.00;99063.34;1667003;85;21032;-46
2021/12/08 13:27:26;;;;;;;56.70;28.10;;;;;;;6.51;100.00;99067.66;1648016;85;21572;-44
2021/12/08 13:29:47;;;;;;;57.93;30.70;;;;;;;6.54;100.00;99073.27;1634734;86;21045;-46
2021/12/08 13:32:27;;;;;;;54.55;28.27;;;;;;;6.54;100.00;99066.33;1656041;85;21025;-45
2021/12/08 13:34:57;;;;;;;57.25;30.10;;;;;;;6.57;100.00;99070.23;1634798;86;21054;-44
2021/12/08 13:37:29;;;;;;;58.05;29.42;;;;;;;6.58;100.00;99075.86;1663394;85;21104;-37
2021/12/08 13:40:06;;;;;;;64.20;30.27;;;;;;;6.58;100.00;99077.59;1655889;85;21549;-37
2021/12/08 13:42:49;;;;;;;52.60;29.00;;;;;;;6.60;100.00;99079.74;1644223;85;21558;-38
2021/12/08 13:45:17;;;;;;;62.87;30.77;;;;;;;6.59;100.00;99074.12;1638828;85;21048;-38
2021/12/08 13:47:46;;;;;;;58.10;28.75;;;;;;;6.61;100.00;99080.16;1636082;85;21088;-36
2021/12/08 13:50:24;;;;;;;56.83;28.05;;;;;;;6.61;100.00;99071.97;1666474;84;21097;-36
2021/12/08 13:53:08;;;;;;;52.33;28.67;;;;;;;6.62;100.00;99071.52;1713617;83;21060;-36
2021/12/08 13:55:45;;;;;;;54.15;28.12;;;;;;;6.63;100.00;99079.31;1706734;83;21543;-36
2021/12/08 13:58:15;;;;;;;62.53;30.70;;;;;;;6.64;100.00;99075.84;1687624;84;21252;-44
2021/12/08 14:00:45;;;;;;;55.80;30.08;;;;;;;6.65;100.00;99076.70;1683909;84;21147;-37
2021/12/08 14:03:20;;;;;;;55.15;30.88;;;;;;;6.66;100.00;99069.32;1664685;85;21043;-37
2021/12/08 14:05:53;;;;;;;60.35;31.23;;;;;;;6.68;100.00;99073.23;1658976;85;21088;-37
2021/12/08 14:08:28;;;;;;;;;;;;;;;6.69;100.00;99077.56;1685088;84;21457;-37
2021/12/08 14:11:04;;;;;;;58.92;29.45;;;;;;;6.71;100.00;99083.17;1681672;84;20138;-38
2021/12/08 14:13:34;;;;;;;55.03;29.63;;;;;;;6.71;100.00;99084.91;1677446;84;21044;-37
2021/12/08 14:16:14;;;;;;;59.90;29.95;;;;;;;6.72;100.00;99077.53;1661499;84;21096;-37
2021/12/08 14:18:44;;;;;;;65.50;32.70;;;;;;;6.72;100.00;99073.20;1670584;84;21644;-43
2021/12/08 14:21:23;;;;;;;51.75;30.27;;;;;;;6.73;100.00;99077.55;1678843;84;21939;-37
2021/12/08 14:23:54;;;;;;;60.88;30.85;;;;;;;6.75;100.00;99072.34;1677443;84;21033;-36
2021/12/08 14:26:27;;;;;;;66.47;36.25;;;;;;;6.75;100.00;99077.09;1680845;84;21066;-45
2021/12/08 14:29:01;;;;;;;59.90;31.80;;;;;;;6.74;100.00;99079.27;1683706;84;21008;-38
2021/12/08 14:31:35;;;;;;;62.60;31.15;;;;;;;6.73;100.00;99076.69;1691295;84;21037;-38
2021/12/08 14:34:29;;;;;;;60.73;29.67;;;;;;;6.75;100.00;99074.94;1685007;84;21044;-37
2021/12/08 14:37:14;;;;;;;61.40;31.37;;;;;;;6.75;100.00;99072.34;1687433;84;21081;-36
2021/12/08 14:39:40;;;;;;;56.42;28.17;;;;;;;6.79;100.00;99083.16;1683335;84;21066;-38
2021/12/08 14:42:15;;;;;;;54.93;29.23;;;;;;;6.81;100.00;99082.70;1674750;84;21658;-38
2021/12/08 14:44:49;;;;;;;55.73;29.98;;;;;;;6.79;100.00;99084.02;1647040;87;21361;-45
2021/12/08 14:47:16;;;;;;;57.62;29.70;;;;;;;6.81;100.00;99084.02;1688609;84;21129;-45
2021/12/08 14:49:55;;;;;;;67.10;31.62;;;;;;;6.83;100.00;99085.72;1672246;86;21054;-44
